createdAt,value
2018-01-13T01:36:48.424Z,3.72
2018-01-13T01:36:48.996Z,3.80
2018-01-13T01:36:49.595Z,3.75
2018-01-13T01:36:50.196Z,3.76
2018-01-13T01:36:50.795Z,3.76
2018-01-13T01:36:51.395Z,3.78
2018-01-13T01:36:51.994Z,3.85
2018-01-13T01:36:52.595Z,3.80
2018-01-13T01:37:46.079Z,3.83
2018-01-13T01:37:46.653Z,3.82
2018-01-13T01:37:47.249Z,3.78
2018-01-13T01:37:47.848Z,3.75
2018-01-13T01:37:48.448Z,3.82
2018-01-13T01:37:49.049Z,3.79
2018-01-13T01:37:49.648Z,3.80
2018-01-13T01:37:50.247Z,3.76
2018-01-13T01:38:43.733Z,3.88
2018-01-13T01:38:44.302Z,3.76
2018-01-13T01:38:44.901Z,3.79
2018-01-13T01:38:45.500Z,3.85
2018-01-13T01:38:46.101Z,3.79
2018-01-13T01:38:46.700Z,3.80
2018-01-13T01:38:47.300Z,3.76
2018-01-13T01:38:47.901Z,3.76
2018-01-13T01:39:42.404Z,3.76
2018-01-13T01:39:42.988Z,3.78
2018-01-13T01:39:43.576Z,3.76
2018-01-13T01:39:44.177Z,3.80
2018-01-13T01:39:44.776Z,3.79
2018-01-13T01:39:45.377Z,3.76
2018-01-13T01:39:45.975Z,3.76
2018-01-13T01:39:46.576Z,3.80
2018-01-13T01:40:41.082Z,3.88
2018-01-13T01:40:41.653Z,3.78
2018-01-13T01:40:42.255Z,3.70
2018-01-13T01:40:42.852Z,3.78
2018-01-13T01:40:43.453Z,3.76
2018-01-13T01:40:44.055Z,3.80
2018-01-13T01:40:44.652Z,3.85
2018-01-13T01:40:45.252Z,3.78
2018-01-13T01:41:38.733Z,3.80
2018-01-13T01:41:39.314Z,3.78
2018-01-13T01:41:39.905Z,3.76
2018-01-13T01:41:40.509Z,3.79
2018-01-13T01:41:41.105Z,3.79
2018-01-13T01:41:41.706Z,3.88
2018-01-13T01:41:42.317Z,3.86
2018-01-13T01:41:42.905Z,3.79
2018-01-13T01:42:36.386Z,3.82
2018-01-13T01:42:36.961Z,3.83
2018-01-13T01:42:37.557Z,3.82
2018-01-13T01:42:38.157Z,3.71
2018-01-13T01:42:38.756Z,3.76
2018-01-13T01:42:39.356Z,3.76
2018-01-13T01:42:39.958Z,3.86
2018-01-13T01:42:40.557Z,3.86
2018-01-13T01:43:35.062Z,3.76
2018-01-13T01:43:35.644Z,3.85
2018-01-13T01:43:36.233Z,3.88
2018-01-13T01:43:36.831Z,3.90
2018-01-13T01:43:37.433Z,3.86
2018-01-13T01:43:38.034Z,3.90
2018-01-13T01:43:38.636Z,3.89
2018-01-13T01:43:39.239Z,3.78
2018-01-13T01:44:33.739Z,3.82
2018-01-13T01:44:34.309Z,3.80
2018-01-13T01:44:34.909Z,3.89
2018-01-13T01:44:35.510Z,3.85
2018-01-13T01:44:36.108Z,3.86
2018-01-13T01:44:36.708Z,3.82
2018-01-13T01:44:37.307Z,3.90
2018-01-13T01:44:37.907Z,3.90
2018-01-13T01:45:32.411Z,3.92
2018-01-13T01:45:32.985Z,3.96
2018-01-13T01:45:33.585Z,3.97
2018-01-13T01:45:34.185Z,3.96
2018-01-13T01:45:34.784Z,3.86
2018-01-13T01:45:35.401Z,3.90
2018-01-13T01:45:35.984Z,3.86
2018-01-13T01:45:36.584Z,3.89
2018-01-13T01:46:31.088Z,3.96
2018-01-13T01:46:31.660Z,3.86
2018-01-13T01:46:32.260Z,3.97
2018-01-13T01:46:32.861Z,3.88
2018-01-13T01:46:33.475Z,3.89
2018-01-13T01:46:34.059Z,3.97
2018-01-13T01:46:34.660Z,3.90
2018-01-13T01:46:35.261Z,3.94
2018-01-13T01:47:28.743Z,3.89
2018-01-13T01:47:29.313Z,3.96
2018-01-13T01:47:29.914Z,3.88
2018-01-13T01:47:30.512Z,3.94
2018-01-13T01:47:31.113Z,3.96
2018-01-13T01:47:31.715Z,3.92
2018-01-13T01:47:32.312Z,3.90
2018-01-13T01:47:32.911Z,3.98
2018-01-13T01:48:26.392Z,3.97
2018-01-13T01:48:26.964Z,4.03
2018-01-13T01:48:27.564Z,4.04
2018-01-13T01:48:28.164Z,4.00
2018-01-13T01:48:28.765Z,4.00
2018-01-13T01:48:29.364Z,3.98
2018-01-13T01:48:29.964Z,4.00
2018-01-13T01:48:30.563Z,4.03
2018-01-13T01:49:25.068Z,3.97
2018-01-13T01:49:25.640Z,4.03
2018-01-13T01:49:26.239Z,3.98
2018-01-13T01:49:26.840Z,4.03
2018-01-13T01:49:27.439Z,3.97
2018-01-13T01:49:28.038Z,4.00
2018-01-13T01:49:28.638Z,4.07
2018-01-13T01:49:29.245Z,4.04
2018-01-13T01:50:22.721Z,4.00
2018-01-13T01:50:23.295Z,4.04
2018-01-13T01:50:23.893Z,3.98
2018-01-13T01:50:24.492Z,4.03
2018-01-13T01:50:25.093Z,3.98
2018-01-13T01:50:25.691Z,4.12
2018-01-13T01:50:26.292Z,3.97
2018-01-13T01:50:26.890Z,3.97
2018-01-13T01:51:21.396Z,3.94
2018-01-13T01:51:21.967Z,4.01
2018-01-13T01:51:22.566Z,4.01
2018-01-13T01:51:23.167Z,4.07
2018-01-13T01:51:23.770Z,4.01
2018-01-13T01:51:24.366Z,4.00
2018-01-13T01:51:24.965Z,3.98
2018-01-13T01:51:25.567Z,3.97
2018-01-13T01:52:20.072Z,4.12
2018-01-13T01:52:20.644Z,4.12
2018-01-13T01:52:21.245Z,4.04
2018-01-13T01:52:21.843Z,4.12
2018-01-13T01:52:22.446Z,4.14
2018-01-13T01:52:23.044Z,4.07
2018-01-13T01:52:23.648Z,3.98
2018-01-13T01:52:24.240Z,4.00
2018-01-13T01:53:17.722Z,4.07
2018-01-13T01:53:18.297Z,4.15
2018-01-13T01:53:18.895Z,4.03
2018-01-13T01:53:19.494Z,3.96
2018-01-13T01:53:20.096Z,4.00
2018-01-13T01:53:20.694Z,4.12
2018-01-13T01:53:21.294Z,4.00
2018-01-13T01:53:21.893Z,4.06
2018-01-13T01:54:16.399Z,4.06
2018-01-13T01:54:16.971Z,4.08
2018-01-13T01:54:17.569Z,4.06
2018-01-13T01:54:18.169Z,4.07
2018-01-13T01:54:18.769Z,4.06
2018-01-13T01:54:19.384Z,4.06
2018-01-13T01:54:19.968Z,4.08
2018-01-13T01:54:20.569Z,4.08
2018-01-13T01:55:15.080Z,4.14
2018-01-13T01:55:15.647Z,4.01
2018-01-13T01:55:16.246Z,4.07
2018-01-13T01:55:16.845Z,4.03
2018-01-13T01:55:17.446Z,4.06
2018-01-13T01:55:18.046Z,4.03
2018-01-13T01:55:18.645Z,4.04
2018-01-13T01:55:19.245Z,4.04
2018-01-13T01:56:12.728Z,4.07
2018-01-13T01:56:13.299Z,4.08
2018-01-13T01:56:13.898Z,4.04
2018-01-13T01:56:14.499Z,4.07
2018-01-13T01:56:15.143Z,4.08
2018-01-13T01:56:15.696Z,4.04
2018-01-13T01:56:16.298Z,4.08
2018-01-13T01:56:16.897Z,4.18
2018-01-13T01:57:10.380Z,4.10
2018-01-13T01:57:10.950Z,4.10
2018-01-13T01:57:11.550Z,4.19
2018-01-13T01:57:12.151Z,4.15
2018-01-13T01:57:12.750Z,4.19
2018-01-13T01:57:13.349Z,4.19
2018-01-13T01:57:13.949Z,4.10
2018-01-13T01:57:14.549Z,4.16
2018-01-13T01:58:08.030Z,4.25
2018-01-13T01:58:08.601Z,4.12
2018-01-13T01:58:09.201Z,4.22
2018-01-13T01:58:09.801Z,4.18
2018-01-13T01:58:10.402Z,4.15
2018-01-13T01:58:11.005Z,4.15
2018-01-13T01:58:11.601Z,4.25
2018-01-13T01:58:12.200Z,4.25
2018-01-13T01:59:05.681Z,4.22
2018-01-13T01:59:06.254Z,4.22
2018-01-13T01:59:06.854Z,4.16
2018-01-13T01:59:07.453Z,4.21
2018-01-13T01:59:08.055Z,4.21
2018-01-13T01:59:08.654Z,4.26
2018-01-13T01:59:09.256Z,4.19
2018-01-13T01:59:09.854Z,4.24
2018-01-13T02:00:03.332Z,4.14
2018-01-13T02:00:03.906Z,4.19
2018-01-13T02:00:04.505Z,4.21
2018-01-13T02:00:05.105Z,4.22
2018-01-13T02:00:05.705Z,4.18
2018-01-13T02:00:06.312Z,4.22
2018-01-13T02:00:06.905Z,4.21
2018-01-13T02:00:07.507Z,4.24
2018-01-13T02:01:00.986Z,4.16
2018-01-13T02:01:01.559Z,4.24
2018-01-13T02:01:02.158Z,4.22
2018-01-13T02:01:02.759Z,4.24
2018-01-13T02:01:03.358Z,4.24
2018-01-13T02:01:03.957Z,4.21
2018-01-13T02:01:04.560Z,4.18
2018-01-13T02:01:05.155Z,4.18
2018-01-13T02:01:58.724Z,4.21
2018-01-13T02:01:59.229Z,4.18
2018-01-13T02:01:59.827Z,4.24
2018-01-13T02:02:00.428Z,4.22
2018-01-13T02:02:01.026Z,4.10
2018-01-13T02:02:01.630Z,4.15
2018-01-13T02:02:02.237Z,4.15
2018-01-13T02:02:02.827Z,4.19
2018-01-13T02:02:57.311Z,4.19
2018-01-13T02:02:57.884Z,4.18
2018-01-13T02:02:58.483Z,4.19
2018-01-13T02:02:59.082Z,4.18
2018-01-13T02:02:59.682Z,4.18
2018-01-13T02:03:00.281Z,4.19
2018-01-13T02:03:00.885Z,4.22
2018-01-13T02:03:01.480Z,4.22
2018-01-13T02:03:54.963Z,4.18
2018-01-13T02:03:55.536Z,4.19
2018-01-13T02:03:56.140Z,4.21
2018-01-13T02:03:56.736Z,4.22
2018-01-13T02:03:57.335Z,4.24
2018-01-13T02:03:57.937Z,4.26
2018-01-13T02:03:58.536Z,4.21
2018-01-13T02:03:59.135Z,4.19
2018-01-13T02:04:52.615Z,4.22
2018-01-13T02:04:53.188Z,4.18
2018-01-13T02:04:53.789Z,4.18
2018-01-13T02:04:54.387Z,4.28
2018-01-13T02:04:54.989Z,4.26
2018-01-13T02:04:55.591Z,4.28
2018-01-13T02:04:56.188Z,4.28
2018-01-13T02:04:56.787Z,4.32
2018-01-13T02:05:50.267Z,4.25
2018-01-13T02:05:50.842Z,4.25
2018-01-13T02:05:51.442Z,4.28
2018-01-13T02:05:52.040Z,4.26
2018-01-13T02:05:52.640Z,4.26
2018-01-13T02:05:53.240Z,4.33
2018-01-13T02:05:53.839Z,4.34
2018-01-13T02:05:54.438Z,4.32
2018-01-13T02:06:47.924Z,4.28
2018-01-13T02:06:48.491Z,4.28
2018-01-13T02:06:49.090Z,4.34
2018-01-13T02:06:49.692Z,4.26
2018-01-13T02:06:50.293Z,4.28
2018-01-13T02:06:50.891Z,4.33
2018-01-13T02:06:51.491Z,4.28
2018-01-13T02:06:52.089Z,4.29
2018-01-13T02:07:45.574Z,4.32
2018-01-13T02:07:46.145Z,4.33
2018-01-13T02:07:46.743Z,4.32
2018-01-13T02:07:47.344Z,4.29
2018-01-13T02:07:47.946Z,4.34
2018-01-13T02:07:48.543Z,4.36
2018-01-13T02:07:49.142Z,4.28
2018-01-13T02:07:49.742Z,4.32
2018-01-13T02:08:43.740Z,4.26
2018-01-13T02:08:44.335Z,4.28
2018-01-13T02:08:44.906Z,4.29
2018-01-13T02:08:45.504Z,4.33
2018-01-13T02:08:46.105Z,4.33
2018-01-13T02:08:46.707Z,4.29
2018-01-13T02:08:47.305Z,4.32
2018-01-13T02:09:41.807Z,4.34
2018-01-13T02:09:42.392Z,4.34
2018-01-13T02:09:42.967Z,4.26
2018-01-13T02:09:43.567Z,4.34
2018-01-13T02:09:44.170Z,4.37
2018-01-13T02:09:44.766Z,4.34
2018-01-13T02:09:45.365Z,4.36
2018-01-13T02:09:45.967Z,4.34
2018-01-13T02:10:39.447Z,4.32
2018-01-13T02:10:40.020Z,4.37
2018-01-13T02:10:40.620Z,4.25
2018-01-13T02:10:41.220Z,4.33
2018-01-13T02:10:41.820Z,4.28
2018-01-13T02:10:42.428Z,4.33
2018-01-13T02:10:43.104Z,4.26
2018-01-13T02:10:43.617Z,4.32
2018-01-13T02:11:38.122Z,4.33
2018-01-13T02:11:38.700Z,4.37
2018-01-13T02:11:39.296Z,4.29
2018-01-13T02:11:39.894Z,4.33
2018-01-13T02:11:40.522Z,4.34
2018-01-13T02:11:41.131Z,4.34
2018-01-13T02:11:41.693Z,4.28
2018-01-13T02:11:42.292Z,4.34
2018-01-13T02:12:35.773Z,4.29
2018-01-13T02:12:36.347Z,4.36
2018-01-13T02:12:36.946Z,4.39
2018-01-13T02:12:37.578Z,4.32
2018-01-13T02:12:38.147Z,4.34
2018-01-13T02:12:38.747Z,4.33
2018-01-13T02:12:39.346Z,4.40
2018-01-13T02:12:39.945Z,4.34
2018-01-13T02:13:34.963Z,4.33
2018-01-13T02:13:35.533Z,4.40
2018-01-13T02:13:36.133Z,4.40
2018-01-13T02:13:36.733Z,4.36
2018-01-13T02:13:37.333Z,4.37
2018-01-13T02:13:37.933Z,4.43
2018-01-13T02:13:38.532Z,4.39
2018-01-13T02:14:32.616Z,4.47
2018-01-13T02:14:33.188Z,4.40
2018-01-13T02:14:33.786Z,4.50
2018-01-13T02:14:34.393Z,4.51
2018-01-13T02:14:34.984Z,4.51
2018-01-13T02:14:35.586Z,4.46
2018-01-13T02:14:36.186Z,4.46
2018-01-13T02:15:34.668Z,4.50
2018-01-13T02:15:35.243Z,4.43
2018-01-13T02:15:35.840Z,4.44
2018-01-13T02:15:37.311Z,4.42
2018-01-13T02:15:37.688Z,4.50
2018-01-13T02:15:38.284Z,4.50
2018-01-13T02:15:38.886Z,4.43
2018-01-13T02:16:32.424Z,4.51
2018-01-13T02:16:32.997Z,4.51
2018-01-13T02:16:33.596Z,4.46
2018-01-13T02:16:34.196Z,4.50
2018-01-13T02:16:34.794Z,4.43
2018-01-13T02:16:35.395Z,4.43
2018-01-13T02:16:35.996Z,4.43
2018-01-13T02:16:36.593Z,4.46
2018-01-13T02:17:30.176Z,4.37
2018-01-13T02:17:30.749Z,4.39
2018-01-13T02:17:31.348Z,4.32
2018-01-13T02:17:31.947Z,4.40
2018-01-13T02:17:32.548Z,4.42
2018-01-13T02:17:33.146Z,4.42
2018-01-13T02:17:33.746Z,4.43
2018-01-13T02:17:34.345Z,4.36
2018-01-13T02:18:27.829Z,4.39
2018-01-13T02:18:28.402Z,4.40
2018-01-13T02:18:29.000Z,4.36
2018-01-13T02:18:29.600Z,4.46
2018-01-13T02:18:30.202Z,4.39
2018-01-13T02:18:30.802Z,4.42
2018-01-13T02:18:31.400Z,4.46
2018-01-13T02:18:32.001Z,4.40
2018-01-13T02:19:25.481Z,4.32
2018-01-13T02:19:26.054Z,4.46
2018-01-13T02:19:26.651Z,4.39
2018-01-13T02:19:27.252Z,4.37
2018-01-13T02:19:27.855Z,4.36
2018-01-13T02:19:28.452Z,4.43
2018-01-13T02:19:29.051Z,4.43
2018-01-13T02:19:29.653Z,4.39
2018-01-13T02:20:24.156Z,4.43
2018-01-13T02:20:24.727Z,4.44
2018-01-13T02:20:25.327Z,4.44
2018-01-13T02:20:25.926Z,4.43
2018-01-13T02:20:26.526Z,4.42
2018-01-13T02:20:27.128Z,4.40
2018-01-13T02:20:27.728Z,4.46
2018-01-13T02:20:28.325Z,4.46
2018-01-13T02:21:22.830Z,4.42
2018-01-13T02:21:23.405Z,4.46
2018-01-13T02:21:24.010Z,4.46
2018-01-13T02:21:24.603Z,4.44
2018-01-13T02:21:25.203Z,4.47
2018-01-13T02:21:25.801Z,4.44
2018-01-13T02:21:26.404Z,4.44
2018-01-13T02:21:27.003Z,4.46
2018-01-13T02:22:21.507Z,4.42
2018-01-13T02:22:22.080Z,4.44
2018-01-13T02:22:22.681Z,4.46
2018-01-13T02:22:23.278Z,4.46
2018-01-13T02:22:23.878Z,4.46
2018-01-13T02:22:24.479Z,4.46
2018-01-13T02:22:25.078Z,4.46
2018-01-13T02:22:25.679Z,4.37
2018-01-13T02:23:19.167Z,4.43
2018-01-13T02:23:19.737Z,4.40
2018-01-13T02:23:20.331Z,4.46
2018-01-13T02:23:20.930Z,4.44
2018-01-13T02:23:21.531Z,4.43
2018-01-13T02:23:22.130Z,4.46
2018-01-13T02:23:22.730Z,4.46
2018-01-13T02:23:23.328Z,4.50
2018-01-13T02:24:16.812Z,4.46
2018-01-13T02:24:17.385Z,4.44
2018-01-13T02:24:17.983Z,4.39
2018-01-13T02:24:18.584Z,4.43
2018-01-13T02:24:19.181Z,4.50
2018-01-13T02:24:19.780Z,4.42
2018-01-13T02:24:20.382Z,4.40
2018-01-13T02:24:20.980Z,4.42
2018-01-13T02:25:15.486Z,4.43
2018-01-13T02:25:16.060Z,4.42
2018-01-13T02:25:16.659Z,4.43
2018-01-13T02:25:17.256Z,4.52
2018-01-13T02:25:17.857Z,4.54
2018-01-13T02:25:18.456Z,4.51
2018-01-13T02:25:19.056Z,4.57
2018-01-13T02:25:19.655Z,4.54
2018-01-13T02:26:14.161Z,4.46
2018-01-13T02:26:14.736Z,4.55
2018-01-13T02:26:15.333Z,4.52
2018-01-13T02:26:15.933Z,4.54
2018-01-13T02:26:16.532Z,4.55
2018-01-13T02:26:17.134Z,4.57
2018-01-13T02:26:17.732Z,4.55
2018-01-13T02:26:18.331Z,4.54
2018-01-13T02:27:12.836Z,4.55
2018-01-13T02:27:13.409Z,4.57
2018-01-13T02:27:14.009Z,4.54
2018-01-13T02:27:14.609Z,4.54
2018-01-13T02:27:15.211Z,4.55
2018-01-13T02:27:15.809Z,4.58
2018-01-13T02:27:16.407Z,4.58
2018-01-13T02:27:17.008Z,4.62
2018-01-13T02:28:10.489Z,4.58
2018-01-13T02:28:11.063Z,4.59
2018-01-13T02:28:11.660Z,4.52
2018-01-13T02:28:12.261Z,4.57
2018-01-13T02:28:12.862Z,4.64
2018-01-13T02:28:13.464Z,4.61
2018-01-13T02:28:14.063Z,4.58
2018-01-13T02:28:14.660Z,4.58
2018-01-13T02:29:08.141Z,4.54
2018-01-13T02:29:08.713Z,4.58
2018-01-13T02:29:09.313Z,4.58
2018-01-13T02:29:09.913Z,4.50
2018-01-13T02:29:10.512Z,4.64
2018-01-13T02:29:11.113Z,4.58
2018-01-13T02:29:11.713Z,4.57
2018-01-13T02:29:12.312Z,4.67
2018-01-13T02:30:05.883Z,4.65
2018-01-13T02:30:06.389Z,4.57
2018-01-13T02:30:06.987Z,4.51
2018-01-13T02:30:07.589Z,4.62
2018-01-13T02:30:08.186Z,4.62
2018-01-13T02:30:08.786Z,4.62
2018-01-13T02:30:09.386Z,4.59
2018-01-13T02:30:09.985Z,4.64
2018-01-13T02:31:03.555Z,4.62
2018-01-13T02:31:04.120Z,4.58
2018-01-13T02:31:04.721Z,4.62
2018-01-13T02:31:05.319Z,4.55
2018-01-13T02:31:05.919Z,4.55
2018-01-13T02:31:06.520Z,4.62
2018-01-13T02:31:07.119Z,4.61
2018-01-13T02:31:07.719Z,4.57
2018-01-13T02:32:01.199Z,4.64
2018-01-13T02:32:01.772Z,4.64
2018-01-13T02:32:02.370Z,4.62
2018-01-13T02:32:02.970Z,4.61
2018-01-13T02:32:03.577Z,4.59
2018-01-13T02:32:04.173Z,4.58
2018-01-13T02:32:04.771Z,4.61
2018-01-13T02:32:05.372Z,4.58
2018-01-13T02:32:59.875Z,4.64
2018-01-13T02:33:00.446Z,4.58
2018-01-13T02:33:01.046Z,4.58
2018-01-13T02:33:01.647Z,4.65
2018-01-13T02:33:02.244Z,4.58
2018-01-13T02:33:02.846Z,4.65
2018-01-13T02:33:03.446Z,4.54
2018-01-13T02:33:04.051Z,4.58
2018-01-13T02:33:57.576Z,4.57
2018-01-13T02:33:58.202Z,4.52
2018-01-13T02:33:58.698Z,4.62
2018-01-13T02:33:59.296Z,4.59
2018-01-13T02:33:59.895Z,4.58
2018-01-13T02:34:00.498Z,4.61
2018-01-13T02:34:01.096Z,4.51
2018-01-13T02:34:01.695Z,4.55
2018-01-13T02:52:35.844Z,4.24
2018-01-13T02:52:36.411Z,4.28
2018-01-13T02:52:37.013Z,4.26
2018-01-13T02:52:37.610Z,4.22
2018-01-13T02:52:38.212Z,4.25
2018-01-13T02:52:38.814Z,4.24
2018-01-13T02:52:39.409Z,4.22
2018-01-13T02:52:40.012Z,4.22
2018-01-13T02:53:33.494Z,4.21
2018-01-13T02:53:34.064Z,4.18
2018-01-13T02:53:34.664Z,4.22
2018-01-13T02:53:35.262Z,4.16
2018-01-13T02:53:35.863Z,4.22
2018-01-13T02:53:36.464Z,4.21
2018-01-13T02:53:37.063Z,4.25
2018-01-13T02:53:37.663Z,4.26
2018-01-13T02:54:32.168Z,4.24
2018-01-13T02:54:32.741Z,4.16
2018-01-13T02:54:33.339Z,4.15
2018-01-13T02:54:33.944Z,4.19
2018-01-13T02:54:34.540Z,4.21
2018-01-13T02:54:35.139Z,4.21
2018-01-13T02:54:35.800Z,4.22
2018-01-13T02:54:36.339Z,4.21
2018-01-13T02:55:30.866Z,4.26
2018-01-13T02:55:31.417Z,4.24
2018-01-13T02:55:32.016Z,4.19
2018-01-13T02:55:32.614Z,4.19
2018-01-13T02:55:33.215Z,4.18
2018-01-13T02:55:33.817Z,4.18
2018-01-13T02:55:34.414Z,4.12
2018-01-13T02:55:35.014Z,4.21
2018-01-13T02:56:29.527Z,4.21
2018-01-13T02:56:30.096Z,4.24
2018-01-13T02:56:30.691Z,4.25
2018-01-13T02:56:31.293Z,4.24
2018-01-13T02:56:31.891Z,4.22
2018-01-13T02:56:32.491Z,4.21
2018-01-13T02:56:33.091Z,4.22
2018-01-13T02:56:33.690Z,4.22
2018-01-13T02:57:28.198Z,4.18
2018-01-13T02:57:28.770Z,4.19
2018-01-13T02:57:29.368Z,4.22
2018-01-13T02:57:29.968Z,4.28
2018-01-13T02:57:30.567Z,4.22
2018-01-13T02:57:31.172Z,4.21
2018-01-13T02:57:31.766Z,4.21
2018-01-13T02:57:32.367Z,4.18
2018-01-13T02:58:25.849Z,4.24
2018-01-13T02:58:26.421Z,4.19
2018-01-13T02:58:27.020Z,4.22
2018-01-13T02:58:27.622Z,4.21
2018-01-13T02:58:28.220Z,4.19
2018-01-13T02:58:28.821Z,4.21
2018-01-13T02:58:29.419Z,4.24
2018-01-13T02:58:30.021Z,4.18
2018-01-13T02:59:24.525Z,4.18
2018-01-13T02:59:25.096Z,4.19
2018-01-13T02:59:25.697Z,4.22
2018-01-13T02:59:26.296Z,4.12
2018-01-13T02:59:26.895Z,4.21
2018-01-13T02:59:27.496Z,4.22
2018-01-13T02:59:28.096Z,4.10
2018-01-13T02:59:28.695Z,4.12
2018-01-13T03:00:22.687Z,4.10
2018-01-13T03:00:23.265Z,4.15
2018-01-13T03:00:23.863Z,4.18
2018-01-13T03:00:24.460Z,4.18
2018-01-13T03:00:25.060Z,4.22
2018-01-13T03:00:25.660Z,4.25
2018-01-13T03:00:26.262Z,4.24
2018-01-13T03:01:19.727Z,4.08
2018-01-13T03:01:20.300Z,4.10
2018-01-13T03:01:20.898Z,4.24
2018-01-13T03:01:21.496Z,4.14
2018-01-13T03:01:22.097Z,4.15
2018-01-13T03:01:22.697Z,4.21
2018-01-13T03:01:23.296Z,4.21
2018-01-13T03:01:23.899Z,4.25
2018-01-13T03:02:18.402Z,4.21
2018-01-13T03:02:18.977Z,4.10
2018-01-13T03:02:19.575Z,4.24
2018-01-13T03:02:20.194Z,4.25
2018-01-13T03:02:20.771Z,4.21
2018-01-13T03:02:21.372Z,4.25
2018-01-13T03:02:21.973Z,4.22
2018-01-13T03:02:22.570Z,4.15
2018-01-13T03:03:17.080Z,4.25
2018-01-13T03:03:17.648Z,4.21
2018-01-13T03:03:18.248Z,4.14
2018-01-13T03:03:18.848Z,4.25
2018-01-13T03:03:19.448Z,4.14
2018-01-13T03:03:20.076Z,4.21
2018-01-13T03:03:20.649Z,4.22
2018-01-13T03:03:21.247Z,4.24
2018-01-13T03:04:14.729Z,4.16
2018-01-13T03:04:15.300Z,4.19
2018-01-13T03:04:15.900Z,4.21
2018-01-13T03:04:16.502Z,4.22
2018-01-13T03:04:17.100Z,4.21
2018-01-13T03:04:17.699Z,4.18
2018-01-13T03:04:18.299Z,4.21
2018-01-13T03:04:18.899Z,4.22
2018-01-13T03:05:12.388Z,4.18
2018-01-13T03:05:12.958Z,4.21
2018-01-13T03:05:13.553Z,4.21
2018-01-13T03:05:14.153Z,4.22
2018-01-13T03:05:14.758Z,4.22
2018-01-13T03:05:15.355Z,4.24
2018-01-13T03:05:15.952Z,4.16
2018-01-13T03:05:16.552Z,4.22
2018-01-13T03:06:11.122Z,4.24
2018-01-13T03:06:11.631Z,4.28
2018-01-13T03:06:12.227Z,4.22
2018-01-13T03:06:12.827Z,4.26
2018-01-13T03:06:13.427Z,4.22
2018-01-13T03:06:14.027Z,4.18
2018-01-13T03:06:14.626Z,4.24
2018-01-13T03:06:15.226Z,4.25
2018-01-13T03:07:08.708Z,4.26
2018-01-13T03:07:09.290Z,4.26
2018-01-13T03:07:09.883Z,4.28
2018-01-13T03:07:10.480Z,4.28
2018-01-13T03:07:11.079Z,4.26
2018-01-13T03:07:11.679Z,4.29
2018-01-13T03:07:12.279Z,4.21
2018-01-13T03:07:12.879Z,4.22
2018-01-13T03:08:08.405Z,4.25
2018-01-13T03:08:08.979Z,4.32
2018-01-13T03:08:09.579Z,4.29
2018-01-13T03:08:10.178Z,4.29
2018-01-13T03:08:10.779Z,4.34
2018-01-13T03:08:11.379Z,4.28
2018-01-13T03:08:11.977Z,4.32
2018-01-13T03:08:12.578Z,4.29
2018-01-13T03:09:06.059Z,4.25
2018-01-13T03:09:06.632Z,4.33
2018-01-13T03:09:07.232Z,4.26
2018-01-13T03:09:07.833Z,4.32
2018-01-13T03:09:08.442Z,4.26
2018-01-13T03:09:09.032Z,4.32
2018-01-13T03:09:09.635Z,4.26
2018-01-13T03:09:10.231Z,4.32
2018-01-13T03:10:04.736Z,4.26
2018-01-13T03:10:06.263Z,4.26
2018-01-13T03:10:06.789Z,4.32
2018-01-13T03:10:07.381Z,4.29
2018-01-13T03:10:07.977Z,4.18
2018-01-13T03:10:08.568Z,4.33
2018-01-13T03:10:09.168Z,4.29
2018-01-13T03:11:03.205Z,4.25
2018-01-13T03:11:03.779Z,4.33
2018-01-13T03:11:04.381Z,4.32
2018-01-13T03:11:05.027Z,4.29
2018-01-13T03:11:05.608Z,4.32
2018-01-13T03:11:06.178Z,4.29
2018-01-13T03:11:06.780Z,4.36
2018-01-13T03:11:07.377Z,4.33
2018-01-13T03:12:00.859Z,4.26
2018-01-13T03:12:01.429Z,4.33
2018-01-13T03:12:02.029Z,4.37
2018-01-13T03:12:02.630Z,4.37
2018-01-13T03:12:03.229Z,4.32
2018-01-13T03:12:03.830Z,4.37
2018-01-13T03:12:04.432Z,4.37
2018-01-13T03:12:05.030Z,4.32
2018-01-13T03:13:00.046Z,4.43
2018-01-13T03:13:00.623Z,4.34
2018-01-13T03:13:01.216Z,4.40
2018-01-13T03:13:01.816Z,4.40
2018-01-13T03:13:02.416Z,4.43
2018-01-13T03:13:03.018Z,4.40
2018-01-13T03:13:57.491Z,4.44
2018-01-13T03:13:58.063Z,4.43
2018-01-13T03:13:58.660Z,4.46
2018-01-13T03:13:59.263Z,4.44
2018-01-13T03:13:59.862Z,4.43
2018-01-13T03:14:00.602Z,4.46
2018-01-13T03:14:01.089Z,4.46
2018-01-13T03:15:14.602Z,4.37
2018-01-13T03:15:15.174Z,4.46
2018-01-13T03:15:15.773Z,4.39
2018-01-13T03:15:16.371Z,4.44
2018-01-13T03:15:16.979Z,4.42
2018-01-13T03:15:17.571Z,4.43
2018-01-13T03:15:18.171Z,4.44
2018-01-13T03:15:18.771Z,4.42
2018-01-13T03:16:12.771Z,4.44
2018-01-13T03:16:13.340Z,4.40
2018-01-13T03:16:13.934Z,4.42
2018-01-13T03:16:14.535Z,4.40
2018-01-13T03:16:15.133Z,4.43
2018-01-13T03:16:15.734Z,4.43
2018-01-13T03:16:16.335Z,4.47
2018-01-13T03:17:09.802Z,4.39
2018-01-13T03:17:10.373Z,4.40
2018-01-13T03:17:10.973Z,4.40
2018-01-13T03:17:11.572Z,4.44
2018-01-13T03:17:12.172Z,4.40
2018-01-13T03:17:12.773Z,4.43
2018-01-13T03:17:13.373Z,4.46
2018-01-13T03:17:13.973Z,4.40
2018-01-13T03:18:07.465Z,4.36
2018-01-13T03:18:08.027Z,4.46
2018-01-13T03:18:08.626Z,4.40
2018-01-13T03:18:09.228Z,4.42
2018-01-13T03:18:09.826Z,4.39
2018-01-13T03:18:10.426Z,4.39
2018-01-13T03:18:11.026Z,4.40
2018-01-13T03:18:11.623Z,4.39
2018-01-13T03:19:05.206Z,4.42
2018-01-13T03:19:05.780Z,4.47
2018-01-13T03:19:06.379Z,4.43
2018-01-13T03:19:06.978Z,4.43
2018-01-13T03:19:07.582Z,4.46
2018-01-13T03:19:08.185Z,4.47
2018-01-13T03:19:08.956Z,4.44
2018-01-13T03:19:09.374Z,4.46
2018-01-13T03:20:03.882Z,4.46
2018-01-13T03:20:04.455Z,4.46
2018-01-13T03:20:05.053Z,4.51
2018-01-13T03:20:05.657Z,4.52
2018-01-13T03:20:06.252Z,4.43
2018-01-13T03:20:06.853Z,4.47
2018-01-13T03:20:07.454Z,4.46
2018-01-13T03:20:08.053Z,4.39
2018-01-13T03:21:01.639Z,4.37
2018-01-13T03:21:02.138Z,4.43
2018-01-13T03:21:02.737Z,4.52
2018-01-13T03:21:03.336Z,4.42
2018-01-13T03:21:03.936Z,4.54
2018-01-13T03:21:04.536Z,4.43
2018-01-13T03:21:05.140Z,4.50
2018-01-13T03:21:05.736Z,4.42
2018-01-13T03:21:59.290Z,4.43
2018-01-13T03:21:59.861Z,4.57
2018-01-13T03:22:00.461Z,4.52
2018-01-13T03:22:01.062Z,4.54
2018-01-13T03:22:01.665Z,4.51
2018-01-13T03:22:02.260Z,4.52
2018-01-13T03:22:02.893Z,4.42
2018-01-13T03:22:03.460Z,4.52
2018-01-13T03:22:56.939Z,4.51
2018-01-13T03:22:57.512Z,4.57
2018-01-13T03:22:58.112Z,4.57
2018-01-13T03:22:58.712Z,4.51
2018-01-13T03:22:59.315Z,4.51
2018-01-13T03:22:59.911Z,4.58
2018-01-13T03:23:00.512Z,4.54
2018-01-13T03:23:01.111Z,4.51
2018-01-13T03:23:55.627Z,4.46
2018-01-13T03:23:56.187Z,4.51
2018-01-13T03:23:56.787Z,4.51
2018-01-13T03:23:57.386Z,4.57
2018-01-13T03:23:57.992Z,4.55
2018-01-13T03:23:58.586Z,4.51
2018-01-13T03:23:59.186Z,4.52
2018-01-13T03:23:59.785Z,4.51
2018-01-13T03:24:53.270Z,4.39
2018-01-13T03:24:53.840Z,4.51
2018-01-13T03:24:54.439Z,4.44
2018-01-13T03:24:55.038Z,4.46
2018-01-13T03:24:55.640Z,4.52
2018-01-13T03:24:56.240Z,4.50
2018-01-13T03:24:56.837Z,4.52
2018-01-13T03:24:57.439Z,4.55
2018-01-13T03:25:51.942Z,4.43
2018-01-13T03:25:52.515Z,4.52
2018-01-13T03:25:53.117Z,4.52
2018-01-13T03:25:53.715Z,4.37
2018-01-13T03:25:54.317Z,4.40
2018-01-13T03:25:54.912Z,4.46
2018-01-13T03:25:55.513Z,4.52
2018-01-13T03:25:56.113Z,4.51
2018-01-13T03:26:49.603Z,4.39
2018-01-13T03:26:50.210Z,4.43
2018-01-13T03:26:50.786Z,4.43
2018-01-13T03:26:51.383Z,4.50
2018-01-13T03:26:51.985Z,4.51
2018-01-13T03:26:53.148Z,4.52
2018-01-13T03:26:53.648Z,4.46
2018-01-13T03:28:06.499Z,4.40
2018-01-13T03:28:07.070Z,4.46
2018-01-13T03:28:07.675Z,4.46
2018-01-13T03:28:08.269Z,4.43
2018-01-13T03:28:08.868Z,4.43
2018-01-13T03:28:09.598Z,4.42
2018-01-13T03:28:10.076Z,4.46
2018-01-13T03:28:10.674Z,4.43
2018-01-13T03:29:05.174Z,4.39
2018-01-13T03:29:05.745Z,4.46
2018-01-13T03:29:06.343Z,4.50
2018-01-13T03:29:06.944Z,4.42
2018-01-13T03:29:07.545Z,4.43
2018-01-13T03:29:08.145Z,4.44
2018-01-13T03:29:08.744Z,4.46
2018-01-13T03:29:09.358Z,4.43
2018-01-13T03:30:03.849Z,4.46
2018-01-13T03:30:04.421Z,4.47
2018-01-13T03:30:05.022Z,4.47
2018-01-13T03:30:05.621Z,4.39
2018-01-13T03:30:06.222Z,4.47
2018-01-13T03:30:06.822Z,4.43
2018-01-13T03:30:07.419Z,4.50
2018-01-13T03:30:08.024Z,4.44
2018-01-13T03:31:01.536Z,4.46
2018-01-13T03:31:02.074Z,4.43
2018-01-13T03:31:02.675Z,4.37
2018-01-13T03:31:03.274Z,4.43
2018-01-13T03:31:03.877Z,4.43
2018-01-13T03:31:04.474Z,4.46
2018-01-13T03:31:05.075Z,4.50
2018-01-13T03:31:05.679Z,4.43
2018-01-13T03:31:59.155Z,4.52
2018-01-13T03:31:59.724Z,4.43
2018-01-13T03:32:00.437Z,4.54
2018-01-13T03:32:00.978Z,4.42
2018-01-13T03:32:02.201Z,4.42
2018-01-13T03:32:02.705Z,4.46
2018-01-13T03:32:03.315Z,4.55
2018-01-13T03:32:57.827Z,4.57
2018-01-13T03:32:58.398Z,4.55
2018-01-13T03:32:58.997Z,4.55